createdAt,value
2017-12-28T00:00:25.029Z,21.50
2017-12-28T00:02:52.999Z,21.50
2017-12-28T00:05:20.963Z,21.50
2017-12-28T00:07:49.096Z,21.50
2017-12-28T00:10:17.806Z,21.40
2017-12-28T00:12:45.780Z,21.40
2017-12-28T00:15:13.908Z,21.40
2017-12-28T00:17:41.921Z,21.40
2017-12-28T00:20:09.937Z,21.40
2017-12-28T00:22:38.064Z,21.40
2017-12-28T00:25:06.027Z,21.50
2017-12-28T00:27:34.079Z,21.40
2017-12-28T00:30:02.957Z,21.30
2017-12-28T00:32:31.717Z,21.30
2017-12-28T00:34:59.691Z,21.30
2017-12-28T00:37:27.787Z,21.30
2017-12-28T00:39:55.755Z,21.30
2017-12-28T00:42:23.768Z,21.20
2017-12-28T00:44:51.859Z,21.20
2017-12-28T00:47:20.095Z,21.10
2017-12-28T00:49:48.981Z,21.10
2017-12-28T00:52:17.803Z,21.10
2017-12-28T00:54:45.829Z,21.00
2017-12-28T00:57:13.798Z,21.10
2017-12-28T00:59:41.883Z,21.10
2017-12-28T01:02:09.976Z,21.10
2017-12-28T01:04:38.729Z,21.00
2017-12-28T01:07:06.848Z,21.00
2017-12-28T01:09:34.869Z,21.00
2017-12-28T01:12:02.839Z,20.90
2017-12-28T01:14:30.983Z,20.90
2017-12-28T01:16:58.955Z,20.80
2017-12-28T01:19:26.927Z,20.80
2017-12-28T01:21:55.019Z,20.80
2017-12-28T01:24:23.019Z,20.50
2017-12-28T01:26:51.135Z,20.60
2017-12-28T01:29:19.261Z,20.60
2017-12-28T01:31:47.239Z,20.40
2017-12-28T01:34:15.249Z,20.20
2017-12-28T01:36:43.449Z,20.20
2017-12-28T01:39:11.427Z,19.80
2017-12-28T01:41:39.456Z,19.60
2017-12-28T01:44:07.601Z,19.60
2017-12-28T01:46:35.679Z,19.60
2017-12-28T01:49:03.787Z,19.70
2017-12-28T01:51:31.883Z,19.60
2017-12-28T01:53:59.847Z,19.60
2017-12-28T01:56:27.906Z,19.60
2017-12-28T01:58:56.037Z,19.70
2017-12-28T02:01:24.052Z,19.50
2017-12-28T02:03:52.096Z,19.60
2017-12-28T02:06:21.499Z,19.70
2017-12-28T02:08:50.231Z,19.70
2017-12-28T02:11:18.195Z,19.70
2017-12-28T02:13:46.287Z,19.70
2017-12-28T02:16:14.329Z,19.60
2017-12-28T02:18:42.323Z,19.60
2017-12-28T02:21:10.423Z,19.50
2017-12-28T02:23:38.445Z,19.40
2017-12-28T02:26:06.471Z,19.30
2017-12-28T02:28:34.562Z,19.40
2017-12-28T02:31:03.285Z,19.40
2017-12-28T02:33:31.301Z,19.30
2017-12-28T02:35:59.550Z,19.30
2017-12-28T02:38:27.569Z,19.30
2017-12-28T02:40:56.286Z,19.20
2017-12-28T02:43:24.449Z,19.20
2017-12-28T02:45:53.214Z,19.10
2017-12-28T02:48:21.175Z,19.10
2017-12-28T02:50:49.416Z,19.10
2017-12-28T02:53:17.440Z,19.10
2017-12-28T02:55:46.227Z,18.90
2017-12-28T02:58:15.109Z,19.00
2017-12-28T03:00:43.085Z,19.00
2017-12-28T03:03:11.051Z,19.00
2017-12-28T03:05:39.286Z,19.00
2017-12-28T03:08:07.275Z,18.90
2017-12-28T03:10:35.239Z,19.00
2017-12-28T03:13:03.371Z,19.00
2017-12-28T03:15:32.173Z,18.90
2017-12-28T03:18:00.197Z,18.90
2017-12-28T03:20:28.330Z,19.10
2017-12-28T03:22:56.361Z,19.00
2017-12-28T03:25:25.199Z,19.10
2017-12-28T03:27:53.307Z,19.10
2017-12-28T03:30:21.326Z,19.10
2017-12-28T03:32:49.314Z,19.10
2017-12-28T03:35:17.461Z,19.20
2017-12-28T03:37:46.249Z,19.20
2017-12-28T03:40:15.017Z,19.30
2017-12-28T03:42:44.341Z,19.20
2017-12-28T03:45:13.129Z,19.40
2017-12-28T03:47:41.893Z,19.30
2017-12-28T03:50:10.018Z,19.30
2017-12-28T03:52:38.142Z,19.40
2017-12-28T03:55:06.228Z,19.50
2017-12-28T03:57:35.089Z,19.70
2017-12-28T04:00:03.101Z,19.70
2017-12-28T04:02:31.817Z,19.60
2017-12-28T04:05:00.000Z,19.50
2017-12-28T04:07:27.983Z,19.60
2017-12-28T04:09:56.001Z,19.60
2017-12-28T04:12:24.855Z,19.60
2017-12-28T04:14:52.865Z,19.60
2017-12-28T04:17:21.621Z,19.60
2017-12-28T04:19:49.767Z,19.60
2017-12-28T04:22:18.159Z,19.60
2017-12-28T04:24:46.193Z,19.70
2017-12-28T04:27:14.413Z,19.70
2017-12-28T04:29:42.413Z,19.80
2017-12-28T04:32:10.387Z,19.90
2017-12-28T04:34:39.267Z,19.90
2017-12-28T04:37:07.251Z,19.90
2017-12-28T04:39:35.966Z,20.10
2017-12-28T04:42:04.137Z,20.10
2017-12-28T04:44:32.203Z,20.30
2017-12-28T04:47:00.957Z,20.60
2017-12-28T04:49:29.094Z,20.60
2017-12-28T04:51:57.115Z,20.90
2017-12-28T04:54:25.297Z,21.10
2017-12-28T04:56:54.673Z,21.70
2017-12-28T04:59:22.651Z,21.70
2017-12-28T05:01:50.711Z,21.90
2017-12-28T05:04:18.857Z,22.00
2017-12-28T05:06:46.879Z,22.20
2017-12-28T05:09:14.893Z,22.40
2017-12-28T05:11:42.995Z,22.60
2017-12-28T05:14:11.025Z,22.70
2017-12-28T05:16:40.431Z,22.70
2017-12-28T05:19:09.263Z,22.50
2017-12-28T05:21:37.265Z,22.50
2017-12-28T05:24:05.227Z,22.80
2017-12-28T05:26:33.473Z,22.80
2017-12-28T05:29:01.481Z,22.70
2017-12-28T05:31:29.451Z,22.60
2017-12-28T05:33:57.725Z,23.00
2017-12-28T05:36:25.845Z,23.40
2017-12-28T05:38:54.903Z,23.20
2017-12-28T05:41:23.003Z,23.50
2017-12-28T05:43:51.876Z,23.50
2017-12-28T05:46:20.767Z,23.40
2017-12-28T05:48:49.756Z,23.60
2017-12-28T05:51:17.933Z,23.60
2017-12-28T05:53:46.006Z,23.80
2017-12-28T05:56:14.299Z,24.00
2017-12-28T05:58:43.063Z,24.20
2017-12-28T06:01:11.043Z,24.20
2017-12-28T06:03:39.173Z,24.20
2017-12-28T06:06:07.193Z,24.40
2017-12-28T06:08:35.945Z,24.40
2017-12-28T06:11:04.085Z,24.40
2017-12-28T06:13:32.181Z,24.50
2017-12-28T06:16:00.229Z,24.40
2017-12-28T06:18:28.477Z,24.40
2017-12-28T06:20:57.264Z,24.60
2017-12-28T06:23:25.288Z,24.60
2017-12-28T06:25:53.379Z,24.80
2017-12-28T06:28:21.351Z,24.70
2017-12-28T06:30:49.366Z,24.70
2017-12-28T06:33:18.291Z,25.00
2017-12-28T06:35:46.263Z,25.00
2017-12-28T06:38:14.251Z,25.30
2017-12-28T06:40:42.394Z,25.40
2017-12-28T06:43:10.373Z,25.40
2017-12-28T06:45:38.423Z,25.40
2017-12-28T06:48:09.626Z,25.40
2017-12-28T06:50:37.597Z,25.40
2017-12-28T06:53:05.571Z,25.60
2017-12-28T06:55:33.723Z,25.60
2017-12-28T06:58:01.865Z,25.80
2017-12-28T07:00:29.906Z,25.70
2017-12-28T07:02:58.008Z,25.80
2017-12-28T07:05:26.828Z,26.00
2017-12-28T07:07:54.850Z,25.90
2017-12-28T07:10:23.703Z,26.20
2017-12-28T07:12:51.687Z,26.20
2017-12-28T07:15:19.825Z,26.20
2017-12-28T07:17:47.919Z,26.40
2017-12-28T07:20:15.929Z,26.30
2017-12-28T07:22:44.694Z,26.60
2017-12-28T07:25:13.588Z,26.60
2017-12-28T07:27:41.580Z,26.60
2017-12-28T07:30:09.557Z,26.70
2017-12-28T07:32:38.451Z,27.00
2017-12-28T07:35:08.123Z,27.00
2017-12-28T07:37:36.264Z,27.00
2017-12-28T07:40:04.373Z,27.20
2017-12-28T07:42:32.410Z,27.20
2017-12-28T07:45:00.500Z,27.20
2017-12-28T07:47:28.654Z,27.30
2017-12-28T07:49:56.669Z,27.40
2017-12-28T07:52:24.690Z,27.40
2017-12-28T07:54:52.894Z,27.50
2017-12-28T07:57:20.922Z,27.50
2017-12-28T07:59:49.912Z,27.60
2017-12-28T08:02:19.698Z,27.70
2017-12-28T08:04:47.683Z,27.70
2017-12-28T08:07:15.667Z,27.80
2017-12-28T08:09:44.522Z,27.90
2017-12-28T08:12:12.570Z,27.90
2017-12-28T08:14:40.578Z,27.90
2017-12-28T08:17:09.921Z,27.90
2017-12-28T08:19:38.643Z,28.10
2017-12-28T08:22:06.689Z,28.10
2017-12-28T08:24:34.844Z,28.30
2017-12-28T08:27:03.725Z,28.50
2017-12-28T08:29:31.931Z,28.40
2017-12-28T08:32:00.055Z,28.40
2017-12-28T08:34:28.060Z,28.40
2017-12-28T08:36:56.900Z,28.50
2017-12-28T08:39:25.090Z,28.40
2017-12-28T08:41:53.211Z,28.50
2017-12-28T08:44:21.985Z,28.60
2017-12-28T08:46:50.949Z,28.70
2017-12-28T08:49:18.998Z,28.70
2017-12-28T08:51:47.041Z,28.80
2017-12-28T08:54:15.956Z,28.80
2017-12-28T08:56:44.025Z,28.80
2017-12-28T08:59:12.058Z,28.80
2017-12-28T09:01:41.104Z,28.90
2017-12-28T09:04:09.175Z,28.90
2017-12-28T09:06:37.257Z,28.90
2017-12-28T09:09:05.517Z,28.90
2017-12-28T09:11:33.551Z,29.00
2017-12-28T09:14:02.316Z,29.00
2017-12-28T09:16:30.579Z,29.00
2017-12-28T09:18:58.564Z,28.90
2017-12-28T09:21:26.596Z,29.00
2017-12-28T09:23:54.708Z,29.00
2017-12-28T09:26:22.865Z,29.00
2017-12-28T09:28:50.915Z,29.10
2017-12-28T09:31:20.069Z,29.10
2017-12-28T09:33:48.863Z,29.20
2017-12-28T09:36:17.716Z,29.30
2017-12-28T09:38:45.898Z,29.30
2017-12-28T09:41:13.946Z,29.30
2017-12-28T09:43:42.043Z,29.20
2017-12-28T09:46:10.192Z,29.10
2017-12-28T09:48:39.734Z,28.90
2017-12-28T09:51:07.774Z,28.90
2017-12-28T09:53:35.883Z,28.90
2017-12-28T09:56:03.874Z,28.90
2017-12-28T09:58:31.922Z,28.80
2017-12-28T10:01:00.048Z,28.70
2017-12-28T10:03:28.211Z,28.80
2017-12-28T10:05:57.123Z,28.70
2017-12-28T10:08:25.243Z,28.70
2017-12-28T10:10:53.273Z,28.80
2017-12-28T10:13:21.443Z,28.80
2017-12-28T10:15:49.792Z,28.80
2017-12-28T10:18:18.741Z,28.60
2017-12-28T10:20:46.715Z,28.60
2017-12-28T10:23:14.819Z,28.70
2017-12-28T10:25:42.896Z,28.70
2017-12-28T10:28:11.733Z,28.60
2017-12-28T10:30:39.889Z,28.60
2017-12-28T10:33:08.721Z,28.60
2017-12-28T10:35:36.711Z,28.50
2017-12-28T10:38:04.873Z,28.50
2017-12-28T10:40:32.883Z,28.50
2017-12-28T10:43:01.652Z,28.40
2017-12-28T10:45:29.887Z,28.40
2017-12-28T10:47:57.863Z,28.40
2017-12-28T10:50:25.903Z,28.40
2017-12-28T10:52:54.019Z,28.40
2017-12-28T10:55:22.066Z,28.30
2017-12-28T10:57:50.076Z,28.30
2017-12-28T11:00:18.923Z,28.30
2017-12-28T11:02:46.924Z,28.20
2017-12-28T11:05:15.073Z,28.20
2017-12-28T11:07:43.184Z,28.20
2017-12-28T11:10:11.215Z,28.10
2017-12-28T11:12:39.208Z,28.10
2017-12-28T11:15:07.317Z,28.00
2017-12-28T11:17:35.357Z,28.00
2017-12-28T11:20:04.373Z,28.00
2017-12-28T11:22:32.487Z,28.10
2017-12-28T11:25:01.261Z,27.90
2017-12-28T11:27:30.079Z,27.80
2017-12-28T11:29:59.169Z,27.80
2017-12-28T11:32:27.187Z,27.70
2017-12-28T11:34:55.810Z,27.70
2017-12-28T11:37:24.643Z,27.60
2017-12-28T11:39:53.605Z,27.60
2017-12-28T11:42:22.517Z,27.60
2017-12-28T11:44:50.631Z,27.60
2017-12-28T11:47:18.752Z,27.60
2017-12-28T11:49:53.757Z,27.70
2017-12-28T11:52:22.892Z,27.60
2017-12-28T11:54:51.127Z,27.50
2017-12-28T11:57:24.242Z,27.60
2017-12-28T11:59:55.055Z,27.50
2017-12-28T12:02:28.623Z,27.50
2017-12-28T12:04:56.751Z,27.50
2017-12-28T12:07:45.079Z,27.40
2017-12-28T12:10:13.269Z,27.40
2017-12-28T12:12:42.029Z,27.30
2017-12-28T12:15:10.199Z,27.30
2017-12-28T12:17:38.187Z,27.30
2017-12-28T12:20:06.175Z,27.20
2017-12-28T12:22:35.033Z,27.20
2017-12-28T12:25:03.937Z,27.20
2017-12-28T12:27:31.971Z,27.10
2017-12-28T12:30:00.075Z,27.20
2017-12-28T12:32:28.188Z,27.10
2017-12-28T12:34:56.955Z,27.10
2017-12-28T12:37:25.081Z,27.10
2017-12-28T12:39:53.118Z,27.00
2017-12-28T12:42:21.857Z,27.00
2017-12-28T12:44:49.967Z,26.90
2017-12-28T12:47:17.997Z,26.90
2017-12-28T12:49:45.987Z,26.90
2017-12-28T12:52:14.329Z,26.90
2017-12-28T12:54:42.357Z,26.70
2017-12-28T12:57:10.475Z,26.70
2017-12-28T12:59:38.613Z,26.60
2017-12-28T13:02:08.521Z,26.60
2017-12-28T13:04:36.732Z,26.60
2017-12-28T13:07:04.862Z,26.50
2017-12-28T13:09:33.069Z,26.50
2017-12-28T13:12:01.095Z,26.50
2017-12-28T13:14:29.277Z,26.40
2017-12-28T13:16:57.255Z,26.40
2017-12-28T13:19:25.248Z,26.30
2017-12-28T13:21:54.292Z,26.20
2017-12-28T13:24:22.276Z,26.10
2017-12-28T13:26:50.329Z,26.20
2017-12-28T13:29:18.470Z,26.10
2017-12-28T13:31:47.201Z,26.00
2017-12-28T13:34:15.235Z,26.00
2017-12-28T13:36:44.177Z,26.00
2017-12-28T13:39:12.166Z,26.00
2017-12-28T13:41:40.136Z,25.90
2017-12-28T13:44:08.263Z,25.80
2017-12-28T13:46:36.545Z,25.90
2017-12-28T13:49:04.596Z,25.90
2017-12-28T13:51:32.717Z,25.80
2017-12-28T13:54:01.166Z,25.80
2017-12-28T13:56:29.228Z,25.80
2017-12-28T13:58:57.891Z,25.70
2017-12-28T14:01:26.627Z,25.70
2017-12-28T14:03:54.915Z,25.70
2017-12-28T14:06:23.067Z,25.70
2017-12-28T14:08:51.935Z,25.70
2017-12-28T14:11:20.838Z,25.60
2017-12-28T14:13:50.513Z,25.60
2017-12-28T14:16:18.629Z,25.60
2017-12-28T14:18:46.812Z,25.50
2017-12-28T14:21:14.960Z,25.50
2017-12-28T14:23:43.691Z,25.50
2017-12-28T14:26:12.330Z,25.50
2017-12-28T14:28:42.180Z,25.50
2017-12-28T14:31:10.215Z,25.50
2017-12-28T14:33:39.007Z,25.50
2017-12-28T14:36:07.975Z,25.40
2017-12-28T14:38:36.005Z,25.40
2017-12-28T14:41:04.038Z,25.50
2017-12-28T14:43:32.893Z,25.50
2017-12-28T14:46:00.924Z,25.40
2017-12-28T14:48:29.091Z,25.40
2017-12-28T14:50:57.946Z,25.40
2017-12-28T14:53:25.982Z,25.40
2017-12-28T14:55:54.072Z,25.40
2017-12-28T14:58:22.278Z,25.40
2017-12-28T15:00:50.323Z,25.30
2017-12-28T15:03:18.328Z,25.30
2017-12-28T15:05:46.534Z,25.30
2017-12-28T15:08:14.563Z,25.30
2017-12-28T15:10:42.600Z,25.30
2017-12-28T15:13:11.016Z,25.20
2017-12-28T15:15:39.054Z,25.20
2017-12-28T15:18:07.058Z,25.20
2017-12-28T15:20:35.163Z,25.20
2017-12-28T15:23:03.903Z,25.20
2017-12-28T15:25:31.889Z,25.10
2017-12-28T15:28:00.000Z,25.20
2017-12-28T15:30:28.009Z,25.10
2017-12-28T15:32:56.037Z,25.10
2017-12-28T15:35:24.886Z,25.10
2017-12-28T15:37:52.877Z,25.10
2017-12-28T15:40:20.874Z,25.00
2017-12-28T15:42:50.491Z,25.00
2017-12-28T15:45:19.260Z,24.90
2017-12-28T15:47:48.010Z,24.90
2017-12-28T15:50:16.322Z,24.90
2017-12-28T15:52:44.329Z,24.90
2017-12-28T15:55:12.340Z,24.90
2017-12-28T15:57:41.694Z,24.90
2017-12-28T16:00:10.479Z,24.90
2017-12-28T16:02:39.851Z,24.80
2017-12-28T16:05:08.974Z,24.80
2017-12-28T16:07:39.329Z,24.80
2017-12-28T16:10:08.312Z,24.80
2017-12-28T16:12:37.467Z,24.80
2017-12-28T16:15:05.823Z,24.70
2017-12-28T16:17:35.694Z,24.70
2017-12-28T16:20:04.612Z,24.70
2017-12-28T16:22:32.781Z,24.70
2017-12-28T16:25:00.800Z,24.70
2017-12-28T16:27:28.924Z,24.60
2017-12-28T16:29:56.914Z,24.70
2017-12-28T16:32:25.859Z,24.60
2017-12-28T16:34:54.712Z,24.60
2017-12-28T16:37:22.925Z,24.60
2017-12-28T16:39:52.411Z,24.60
2017-12-28T16:42:20.533Z,24.60
2017-12-28T16:44:48.756Z,24.60
2017-12-28T16:47:16.773Z,24.50
2017-12-28T16:49:44.932Z,24.40
2017-12-28T16:52:13.700Z,24.40
2017-12-28T16:54:41.936Z,24.40
2017-12-28T16:57:10.353Z,24.30
2017-12-28T16:59:42.344Z,24.30
2017-12-28T17:02:13.086Z,24.30
2017-12-28T17:04:41.878Z,24.30
2017-12-28T17:07:10.630Z,24.20
2017-12-28T17:09:39.240Z,24.20
2017-12-28T17:12:09.720Z,24.20
2017-12-28T17:14:40.141Z,24.10
2017-12-28T17:17:08.319Z,24.10
2017-12-28T17:19:36.548Z,24.10
2017-12-28T17:22:06.210Z,24.10
2017-12-28T17:24:36.616Z,24.10
2017-12-28T17:27:04.682Z,24.10
2017-12-28T17:29:32.726Z,24.00
2017-12-28T17:32:00.902Z,24.00
2017-12-28T17:34:29.631Z,24.00
2017-12-28T17:36:57.670Z,24.00
2017-12-28T17:39:26.450Z,24.00
2017-12-28T17:41:54.486Z,23.90
2017-12-28T17:44:22.556Z,24.00
2017-12-28T17:46:51.706Z,23.90
2017-12-28T17:49:20.497Z,23.80
2017-12-28T17:51:49.240Z,23.80
2017-12-28T17:54:17.431Z,23.70
2017-12-28T17:56:45.610Z,23.80
2017-12-28T17:59:13.662Z,23.80
2017-12-28T18:01:41.817Z,23.80
2017-12-28T18:04:09.808Z,23.80
2017-12-28T18:06:37.920Z,23.80
2017-12-28T18:09:06.755Z,23.70
2017-12-28T18:11:34.786Z,23.70
2017-12-28T18:14:03.555Z,23.70
2017-12-28T18:16:31.764Z,23.60
2017-12-28T18:18:59.914Z,23.60
2017-12-28T18:21:27.950Z,23.60
2017-12-28T18:23:56.855Z,23.60
2017-12-28T18:26:24.863Z,23.50
2017-12-28T18:28:53.629Z,23.50
2017-12-28T18:31:21.730Z,23.50
2017-12-28T18:33:52.327Z,23.50
2017-12-28T18:36:20.562Z,23.50
2017-12-28T18:38:48.645Z,23.40
2017-12-28T18:41:16.644Z,23.40
2017-12-28T18:43:44.605Z,23.40
2017-12-28T18:46:12.892Z,23.40
2017-12-28T18:48:41.672Z,23.40
2017-12-28T18:51:09.674Z,23.30
2017-12-28T18:53:37.790Z,23.20
2017-12-28T18:56:05.816Z,23.20
2017-12-28T18:58:33.843Z,23.20
2017-12-28T19:01:01.941Z,23.10
2017-12-28T19:03:29.924Z,23.20
2017-12-28T19:05:57.883Z,23.10
2017-12-28T19:08:25.980Z,23.10
2017-12-28T19:10:53.939Z,23.10
2017-12-28T19:13:21.938Z,23.10
2017-12-28T19:15:50.825Z,23.10
2017-12-28T19:18:20.466Z,23.10
2017-12-28T19:20:48.536Z,23.00
2017-12-28T19:23:16.830Z,23.00
2017-12-28T19:25:44.828Z,23.00
2017-12-28T19:28:13.561Z,23.00
2017-12-28T19:30:42.384Z,23.00
2017-12-28T19:33:10.374Z,22.90
2017-12-28T19:35:38.340Z,23.00
2017-12-28T19:38:06.462Z,22.90
2017-12-28T19:40:35.178Z,22.90
2017-12-28T19:43:03.206Z,22.80
2017-12-28T19:45:32.028Z,22.80
2017-12-28T19:47:59.988Z,22.70
2017-12-28T19:50:27.940Z,22.70
2017-12-28T19:52:56.748Z,22.70
2017-12-28T19:55:24.730Z,22.70
2017-12-28T19:57:52.860Z,22.70
2017-12-28T20:00:20.940Z,22.80
2017-12-28T20:02:48.909Z,22.70
2017-12-28T20:05:16.922Z,22.70
2017-12-28T20:07:45.172Z,22.70
2017-12-28T20:10:13.902Z,22.70
2017-12-28T20:12:41.898Z,22.60
2017-12-28T20:15:10.145Z,22.50
2017-12-28T20:17:38.202Z,22.50
2017-12-28T20:20:06.140Z,22.50
2017-12-28T20:22:35.104Z,22.50
2017-12-28T20:25:03.288Z,22.40
2017-12-28T20:27:31.306Z,22.40
2017-12-28T20:29:59.376Z,22.40
2017-12-28T20:32:28.106Z,22.30
2017-12-28T20:34:56.080Z,22.30
2017-12-28T20:37:24.156Z,22.30
2017-12-28T20:39:52.087Z,22.20
2017-12-28T20:42:20.094Z,22.20
2017-12-28T20:44:48.218Z,22.30
2017-12-28T20:47:16.962Z,22.20
2017-12-28T20:49:44.943Z,22.20
2017-12-28T20:52:13.017Z,22.10
2017-12-28T20:54:41.026Z,22.00
2017-12-28T20:57:08.980Z,21.90
2017-12-28T20:59:37.793Z,21.70
2017-12-28T21:02:05.730Z,21.70
2017-12-28T21:04:33.742Z,21.70
2017-12-28T21:07:01.874Z,21.70
2017-12-28T21:09:29.894Z,21.60
2017-12-28T21:11:57.842Z,21.50
2017-12-28T21:14:26.658Z,21.60
2017-12-28T21:16:54.633Z,21.60
2017-12-28T21:19:22.568Z,21.50
2017-12-28T21:21:51.392Z,21.60
2017-12-28T21:24:19.513Z,21.60
2017-12-28T21:26:47.585Z,21.60
2017-12-28T21:29:15.677Z,21.60
2017-12-28T21:31:44.351Z,21.50
2017-12-28T21:34:13.069Z,21.50
2017-12-28T21:36:41.235Z,21.50
2017-12-28T21:39:09.969Z,21.50
2017-12-28T21:41:37.904Z,21.50
2017-12-28T21:44:05.947Z,21.40
2017-12-28T21:46:34.683Z,21.40
2017-12-28T21:49:02.641Z,21.40
2017-12-28T21:51:30.729Z,21.50
2017-12-28T21:53:58.678Z,21.50
2017-12-28T21:56:26.651Z,21.50
2017-12-28T21:58:54.691Z,21.40
2017-12-28T22:01:23.413Z,21.30
2017-12-28T22:03:51.422Z,21.30
2017-12-28T22:06:19.533Z,21.40
2017-12-28T22:08:48.256Z,21.30
2017-12-28T22:11:16.232Z,21.30
2017-12-28T22:13:44.299Z,21.30
2017-12-28T22:16:12.279Z,21.30
2017-12-28T22:18:40.228Z,21.20
2017-12-28T22:21:08.267Z,21.30
2017-12-28T22:23:36.938Z,21.20
2017-12-28T22:26:05.121Z,21.20
2017-12-28T22:28:33.213Z,21.30
2017-12-28T22:31:01.918Z,21.10
2017-12-28T22:33:29.881Z,21.10
2017-12-28T22:35:58.701Z,21.10
2017-12-28T22:38:26.680Z,21.10
2017-12-28T22:40:54.641Z,21.00
2017-12-28T22:43:22.738Z,21.10
2017-12-28T22:45:50.699Z,21.00
2017-12-28T22:48:18.704Z,21.00
2017-12-28T22:50:46.789Z,21.00
2017-12-28T22:53:15.491Z,20.90
2017-12-28T22:55:43.473Z,20.80
2017-12-28T22:58:11.575Z,20.90
2017-12-28T23:00:39.574Z,20.90
2017-12-28T23:03:07.528Z,20.90
2017-12-28T23:05:35.673Z,20.90
2017-12-28T23:08:03.683Z,20.80
2017-12-28T23:10:31.619Z,20.90
2017-12-28T23:12:59.709Z,20.90
2017-12-28T23:15:27.695Z,20.80
2017-12-28T23:17:55.675Z,20.80
2017-12-28T23:20:23.765Z,20.70
2017-12-28T23:22:52.461Z,20.70
2017-12-28T23:25:21.126Z,20.70
2017-12-28T23:27:49.361Z,20.70
2017-12-28T23:30:17.353Z,20.70
2017-12-28T23:32:45.292Z,20.70
2017-12-28T23:35:13.331Z,20.60
2017-12-28T23:37:41.983Z,20.50
2017-12-28T23:40:09.899Z,20.50
2017-12-28T23:42:37.969Z,20.40
2017-12-28T23:45:06.693Z,20.40
2017-12-28T23:47:34.679Z,20.30
2017-12-28T23:50:02.807Z,20.20
2017-12-28T23:52:30.747Z,20.20
2017-12-28T23:54:58.733Z,20.30
2017-12-28T23:57:27.572Z,20.30
2017-12-28T23:59:55.552Z,20.30
